Time;durP1;ratioP1;P1;durP2;ratioP2;P2;SDS_P1;SDS_P2;PMS_P1;PMS_P2;Temp;Humidity;BMP_temperature;BMP_pressure;BME280_temperature;BME280_humidity;BME280_pressure;Samples;Min_cycle;Max_cycle;Signal;HPM_P1;HPM_P2
2023/06/29 00:01:22;;;;;;;4.18;2.38;;;;;;;18.56;70.87;99661.03;3168748;27;20055;-68
2023/06/29 00:02:54;;;;;;;;;;;;;;;18.38;71.27;99658.06;3177341;27;20439;-70
2023/06/29 00:04:26;;;;;;;3.70;2.13;;;;;;;18.46;71.08;99660.94;3172476;27;20046;-70
2023/06/29 00:05:58;;;;;;;3.63;2.33;;;;;;;18.48;70.67;99658.97;3176083;27;20167;-69
2023/06/29 00:07:33;;;;;;;3.30;2.20;;;;;;;18.48;70.71;99658.16;3175744;27;20047;-69
2023/06/29 00:09:05;;;;;;;3.40;2.10;;;;;;;18.47;70.36;99657.31;3178159;27;20429;-68
2023/06/29 00:10:37;;;;;;;5.47;2.13;;;;;;;18.46;70.39;99660.06;3177923;27;20054;-68
2023/06/29 00:12:08;;;;;;;3.58;2.33;;;;;;;18.49;70.46;99658.03;3177972;27;20062;-68
2023/06/29 00:13:41;;;;;;;2.58;1.65;;;;;;;18.50;70.39;99653.59;3177787;27;20058;-68
2023/06/29 00:15:13;;;;;;;3.67;2.28;;;;;;;18.49;70.21;99654.56;3178021;27;20054;-68
2023/06/29 00:16:50;;;;;;;4.32;1.90;;;;;;;18.48;70.04;99647.59;3175654;27;20108;-68
2023/06/29 00:18:23;;;;;;;3.70;2.22;;;;;;;18.41;70.02;99650.75;3174952;27;20051;-69
2023/06/29 00:19:54;;;;;;;4.55;2.05;;;;;;;18.42;70.12;99648.94;3178047;27;20047;-70
2023/06/29 00:21:28;;;;;;;3.83;2.40;;;;;;;18.44;69.80;99646.19;3174967;27;20089;-69
2023/06/29 00:23:00;;;;;;;3.10;2.20;;;;;;;18.41;69.81;99645.47;3168783;27;20047;-69
2023/06/29 00:24:32;;;;;;;3.42;2.33;;;;;;;18.40;70.23;99646.44;3178101;27;20059;-69
2023/06/29 00:26:03;;;;;;;3.10;1.90;;;;;;;18.40;70.16;99645.59;3174114;27;20052;-69
2023/06/29 00:27:35;;;;;;;2.67;1.77;;;;;;;18.37;70.44;99653.75;3177871;27;20099;-68
2023/06/29 00:29:07;;;;;;;3.10;1.90;;;;;;;18.27;70.53;99645.72;3178010;27;20055;-69
2023/06/29 00:30:39;;;;;;;3.55;1.90;;;;;;;18.27;70.72;99656.28;3178350;27;20051;-69
2023/06/29 00:32:12;;;;;;;2.70;2.03;;;;;;;18.27;71.00;99656.28;3177808;27;20051;-69
2023/06/29 00:33:44;;;;;;;;;;;;;;;18.05;71.27;99664.22;3178147;27;20130;-69
2023/06/29 00:35:16;;;;;;;6.88;1.95;;;;;;;18.07;71.64;99664.91;3177776;27;20380;-69
2023/06/29 00:36:47;;;;;;;2.65;2.00;;;;;;;18.06;71.50;99671.97;3171702;27;20055;-69
2023/06/29 00:38:19;;;;;;;3.17;1.83;;;;;;;18.02;71.25;99665.28;3174385;27;20509;-69
2023/06/29 00:39:51;;;;;;;2.88;2.30;;;;;;;17.99;71.18;99665.53;3171450;27;20047;-70
2023/06/29 00:41:22;;;;;;;6.22;2.35;;;;;;;17.96;71.02;99663.97;3173022;28;20047;-69
2023/06/29 00:42:55;;;;;;;4.60;2.15;;;;;;;17.98;70.79;99678.81;3177676;28;20111;-69
2023/06/29 00:44:27;;;;;;;4.50;1.98;;;;;;;17.94;70.62;99681.69;3178100;28;20043;-69
2023/06/29 00:45:59;;;;;;;5.10;2.28;;;;;;;17.91;70.63;99681.09;3172318;28;20054;-71
2023/06/29 00:47:33;;;;;;;3.67;2.15;;;;;;;17.92;70.64;99688.03;3170969;28;20619;-71
2023/06/29 00:49:05;;;;;;;3.10;2.00;;;;;;;17.90;70.60;99682.06;3178113;28;20043;-73
2023/06/29 00:50:37;;;;;;;4.88;1.90;;;;;;;17.89;70.40;99683.81;3172305;28;20055;-71
2023/06/29 00:52:09;;;;;;;4.28;2.28;;;;;;;17.84;70.57;99678.09;3172057;28;20055;-72
2023/06/29 00:53:42;;;;;;;2.85;2.15;;;;;;;17.81;71.06;99670.44;3177995;28;20066;-70
2023/06/29 00:55:14;;;;;;;3.40;2.40;;;;;;;17.76;71.50;99682.25;3177860;28;20051;-72
2023/06/29 00:56:45;;;;;;;3.42;2.50;;;;;;;17.73;72.09;99675.41;3178561;27;20062;-72
2023/06/29 00:58:18;;;;;;;3.63;2.28;;;;;;;17.68;72.57;99665.22;3180558;27;20043;-72
2023/06/29 00:59:49;;;;;;;3.90;2.80;;;;;;;17.62;72.83;99668.31;3180569;27;20062;-72
2023/06/29 01:01:21;;;;;;;4.60;2.50;;;;;;;17.60;73.26;99672.03;3173647;27;20113;-72
2023/06/29 01:02:55;;;;;;;3.65;2.10;;;;;;;17.56;73.34;99675.84;3180503;27;20062;-72
2023/06/29 01:04:26;;;;;;;;;;;;;;;17.34;73.87;99681.91;3175343;27;20044;-72
2023/06/29 01:06:04;;;;;;;5.60;2.05;;;;;;;17.35;74.07;99673.88;3178138;27;19971;-72
2023/06/29 01:07:40;;;;;;;3.10;1.83;;;;;;;17.33;74.19;99680.22;3177998;27;20196;-71
2023/06/29 01:09:13;;;;;;;4.65;2.45;;;;;;;17.26;74.28;99672.78;3179168;27;20131;-71
2023/06/29 01:10:47;;;;;;;3.20;2.20;;;;;;;17.19;74.67;99678.66;3180075;27;20096;-71
2023/06/29 01:12:19;;;;;;;2.75;2.30;;;;;;;17.19;74.87;99683.91;3180442;27;20138;-72
2023/06/29 01:13:54;;;;;;;3.88;2.22;;;;;;;17.17;74.85;99677.91;3171539;27;20052;-72
2023/06/29 01:15:26;;;;;;;3.22;2.30;;;;;;;17.13;75.20;99685.19;3176096;27;20144;-72
2023/06/29 01:16:58;;;;;;;3.58;1.80;;;;;;;17.10;75.49;99674.06;3176718;27;20167;-72
2023/06/29 01:18:32;;;;;;;3.35;2.35;;;;;;;17.08;75.44;99679.44;3169745;27;20044;-72
2023/06/29 01:20:09;;;;;;;3.58;2.55;;;;;;;17.03;75.64;99677.13;3174106;27;20142;-72
2023/06/29 01:21:50;;;;;;;3.90;2.40;;;;;;;17.05;75.70;99680.50;3174919;27;20047;-72
2023/06/29 01:23:25;;;;;;;3.33;2.25;;;;;;;17.00;75.79;99679.97;3174817;27;20047;-72
2023/06/29 01:24:58;;;;;;;3.33;2.00;;;;;;;17.06;75.74;99681.31;3179789;27;20553;-71
2023/06/29 01:26:31;;;;;;;3.80;2.47;;;;;;;17.03;75.61;99687.66;3180022;27;20115;-72
2023/06/29 01:28:05;;;;;;;2.92;2.05;;;;;;;17.08;75.58;99681.22;3180173;27;20043;-72
2023/06/29 01:29:37;;;;;;;3.25;1.95;;;;;;;17.06;75.65;99683.94;3179911;27;20055;-71
2023/06/29 01:31:09;;;;;;;3.85;1.90;;;;;;;17.09;75.43;99677.63;3180378;27;20115;-72
2023/06/29 01:32:41;;;;;;;2.30;1.70;;;;;;;17.10;75.44;99676.69;3179837;27;20055;-72
2023/06/29 01:34:12;;;;;;;6.00;2.25;;;;;;;17.13;75.54;99673.84;3179566;27;20047;-71
2023/06/29 01:35:45;;;;;;;4.05;2.30;;;;;;;17.09;75.52;99672.38;3179879;27;20103;-72
2023/06/29 01:37:20;;;;;;;6.45;2.10;;;;;;;17.03;75.59;99671.88;3170597;27;20055;-72
2023/06/29 01:38:58;;;;;;;4.55;2.05;;;;;;;17.04;75.47;99673.56;3179714;27;20051;-72
2023/06/29 01:40:33;;;;;;;2.90;2.10;;;;;;;17.02;75.87;99662.31;3166504;28;20448;-72
2023/06/29 01:42:07;;;;;;;2.67;1.90;;;;;;;17.01;75.84;99649.28;3180062;27;20054;-71
2023/06/29 01:43:39;;;;;;;2.38;1.73;;;;;;;17.01;75.83;99650.13;3180075;27;20670;-71
2023/06/29 01:45:12;;;;;;;4.97;2.25;;;;;;;17.03;75.61;99642.94;3179695;27;20485;-70
2023/06/29 01:46:46;;;;;;;2.70;1.80;;;;;;;17.05;75.46;99653.34;3177837;27;20051;-72
2023/06/29 01:48:18;;;;;;;3.97;1.90;;;;;;;17.06;75.49;99650.59;3178522;27;20051;-70
2023/06/29 01:49:49;;;;;;;3.17;2.10;;;;;;;17.04;75.28;99665.66;3177240;27;20557;-70
2023/06/29 01:51:22;;;;;;;3.40;2.03;;;;;;;17.05;75.08;99677.03;3174884;27;20082;-71
2023/06/29 01:52:54;;;;;;;6.88;2.17;;;;;;;17.04;74.82;99686.72;3176187;27;20586;-70
2023/06/29 01:54:26;;;;;;;3.80;2.28;;;;;;;17.03;74.87;99692.91;3179576;27;20050;-71
2023/06/29 01:55:59;;;;;;;2.83;1.85;;;;;;;17.01;74.71;99692.19;3179369;27;20498;-69
2023/06/29 01:57:30;;;;;;;6.10;1.88;;;;;;;17.00;74.59;99697.56;3179639;27;20493;-70
2023/06/29 01:59:03;;;;;;;2.63;1.98;;;;;;;16.97;74.54;99677.56;3173569;27;20131;-69
2023/06/29 02:00:35;;;;;;;3.40;1.97;;;;;;;16.97;74.57;99685.47;3169285;27;20057;-70
2023/06/29 02:02:06;;;;;;;4.80;1.80;;;;;;;16.95;74.45;99687.41;3171870;27;20114;-70
2023/06/29 02:03:38;;;;;;;3.65;2.45;;;;;;;16.97;74.38;99676.75;3179414;27;20051;-70
2023/06/29 02:05:15;;;;;;;3.03;2.13;;;;;;;16.98;74.25;99663.50;3171059;27;20576;-69
2023/06/29 02:06:47;;;;;;;2.88;2.13;;;;;;;16.92;74.19;99663.09;3176675;27;20047;-70
2023/06/29 02:08:19;;;;;;;4.95;2.17;;;;;;;16.92;74.23;99670.97;3179015;27;20057;-69
2023/06/29 02:09:51;;;;;;;4.18;2.40;;;;;;;16.89;74.35;99661.53;3174625;27;20521;-70
2023/06/29 02:11:23;;;;;;;4.05;2.17;;;;;;;16.88;74.25;99664.28;3179361;27;20047;-70
2023/06/29 02:12:55;;;;;;;6.70;2.17;;;;;;;16.82;74.22;99663.75;3179600;27;20051;-73
2023/06/29 02:14:28;;;;;;;3.78;1.98;;;;;;;16.86;74.20;99676.69;3177074;27;20058;-73
2023/06/29 02:15:59;;;;;;;4.97;2.22;;;;;;;16.85;74.15;99681.13;3179277;27;20059;-73
2023/06/29 02:17:31;;;;;;;3.35;2.00;;;;;;;16.83;74.24;99680.41;3171005;27;20047;-73
2023/06/29 02:19:04;;;;;;;4.60;2.08;;;;;;;16.86;74.33;99681.94;3167844;27;20058;-73
2023/06/29 02:20:35;;;;;;;8.00;1.92;;;;;;;16.89;74.59;99666.81;3168363;27;20051;-73
2023/06/29 02:22:07;;;;;;;3.40;2.00;;;;;;;16.93;74.76;99662.16;3170776;27;20473;-73
2023/06/29 02:23:39;;;;;;;3.05;2.10;;;;;;;16.95;74.90;99661.09;3175160;27;20600;-73
2023/06/29 02:25:12;;;;;;;3.63;2.13;;;;;;;16.99;75.04;99665.16;3179161;27;20087;-73
2023/06/29 02:26:46;;;;;;;3.75;2.20;;;;;;;16.97;75.21;99674.94;3179422;27;20051;-73
2023/06/29 02:28:16;;;;;;;2.42;1.70;;;;;;;16.94;75.43;99669.09;3178976;27;20042;-73
2023/06/29 02:29:48;;;;;;;5.75;2.33;;;;;;;16.91;75.42;99670.13;3179114;27;20059;-73
2023/06/29 02:31:20;;;;;;;3.92;1.95;;;;;;;16.89;75.51;99668.56;3179151;27;20051;-73
2023/06/29 02:32:51;;;;;;;2.55;1.98;;;;;;;16.86;75.40;99669.66;3179081;27;20518;-72
2023/06/29 02:34:23;;;;;;;3.38;2.22;;;;;;;16.84;75.40;99666.28;3179403;27;20092;-73
2023/06/29 02:35:54;;;;;;;5.18;2.17;;;;;;;16.80;75.27;99664.81;3179471;27;20186;-73
2023/06/29 02:37:26;;;;;;;2.50;1.85;;;;;;;16.86;75.32;99669.66;3167899;27;20788;-73
2023/06/29 02:38:58;;;;;;;4.70;2.00;;;;;;;16.88;75.20;99667.75;3167999;27;20501;-73
2023/06/29 02:40:29;;;;;;;3.95;2.42;;;;;;;16.91;75.16;99659.63;3168292;27;20067;-73
2023/06/29 02:42:03;;;;;;;3.53;2.30;;;;;;;16.95;74.90;99663.72;3179506;27;20492;-73
2023/06/29 02:43:33;;;;;;;6.00;2.15;;;;;;;16.94;74.97;99659.41;3178010;27;20191;-74
2023/06/29 02:45:07;;;;;;;2.33;1.90;;;;;;;16.97;74.74;99659.16;3177783;27;20111;-73
2023/06/29 02:46:39;;;;;;;6.22;2.30;;;;;;;16.98;74.51;99657.41;3177909;27;20051;-74
2023/06/29 02:48:10;;;;;;;2.78;1.90;;;;;;;16.95;74.41;99653.19;3175015;27;20063;-72
2023/06/29 02:49:41;;;;;;;4.03;2.15;;;;;;;16.97;74.22;99661.78;3177707;27;20439;-72
2023/06/29 02:51:12;;;;;;;2.28;1.90;;;;;;;16.96;74.16;99654.88;3172176;27;20043;-72
2023/06/29 02:52:44;;;;;;;2.95;1.92;;;;;;;16.98;74.07;99655.59;3172588;27;20472;-71
2023/06/29 02:54:16;;;;;;;4.22;1.83;;;;;;;16.98;73.95;99650.34;3179123;27;20054;-72
2023/06/29 02:55:48;;;;;;;3.72;2.10;;;;;;;16.99;73.72;99652.00;3178676;27;20213;-71
2023/06/29 02:57:22;;;;;;;4.85;2.05;;;;;;;16.99;73.46;99651.19;3178648;27;20059;-72
2023/06/29 02:58:53;;;;;;;4.10;2.50;;;;;;;16.97;73.32;99645.19;3180884;27;20051;-71
2023/06/29 03:00:24;;;;;;;3.83;2.20;;;;;;;16.99;73.12;99645.91;3177141;27;20051;-71
2023/06/29 03:01:56;;;;;;;2.35;1.90;;;;;;;17.01;73.13;99649.28;3168018;27;20062;-71
2023/06/29 03:03:27;;;;;;;3.00;1.67;;;;;;;17.01;72.73;99658.00;3178924;27;20051;-70
2023/06/29 03:04:59;;;;;;;3.05;2.08;;;;;;;17.01;72.54;99660.63;3175533;27;20122;-73
2023/06/29 03:06:31;;;;;;;2.67;1.88;;;;;;;17.02;72.25;99661.47;3170943;27;20064;-73
2023/06/29 03:08:04;;;;;;;3.20;2.10;;;;;;;17.05;72.26;99658.59;3169068;27;20054;-70
2023/06/29 03:09:35;;;;;;;4.30;2.03;;;;;;;17.06;72.07;99653.22;3170701;27;20043;-70
2023/06/29 03:11:07;;;;;;;3.50;2.20;;;;;;;17.11;71.72;99659.94;3176174;27;20097;-72
2023/06/29 03:12:41;;;;;;;5.65;2.03;;;;;;;17.11;71.38;99660.78;3178554;27;20051;-71
2023/06/29 03:14:13;;;;;;;3.53;1.60;;;;;;;17.15;71.30;99666.66;3178459;27;20051;-71
2023/06/29 03:15:45;;;;;;;4.32;1.85;;;;;;;17.16;70.98;99669.19;3167989;27;20059;-70
2023/06/29 03:17:15;;;;;;;5.38;1.95;;;;;;;17.20;70.90;99667.16;3173534;27;20055;-71
2023/06/29 03:18:47;;;;;;;3.97;1.85;;;;;;;17.22;70.53;99667.88;3178158;27;20130;-71
2023/06/29 03:20:20;;;;;;;6.07;1.95;;;;;;;17.23;70.23;99661.66;3178266;27;20476;-73
2023/06/29 03:21:50;;;;;;;4.47;1.70;;;;;;;17.27;70.14;99663.97;3172595;27;20047;-75
2023/06/29 03:23:22;;;;;;;5.38;2.05;;;;;;;17.28;69.96;99662.16;3177773;27;20051;-77
2023/06/29 03:24:53;;;;;;;3.63;1.83;;;;;;;17.33;69.62;99664.44;3178546;27;20047;-74
2023/06/29 03:26:25;;;;;;;3.03;2.13;;;;;;;17.35;69.36;99665.16;3178701;27;20078;-74
2023/06/29 03:27:58;;;;;;;2.45;1.88;;;;;;;17.38;69.18;99663.13;3178867;27;20046;-72
2023/06/29 03:29:30;;;;;;;3.40;1.80;;;;;;;17.39;69.27;99667.47;3178226;27;20116;-72
2023/06/29 03:31:02;;;;;;;3.65;2.35;;;;;;;17.43;68.97;99662.78;3178572;27;20104;-73
2023/06/29 03:32:34;;;;;;;3.15;1.73;;;;;;;17.45;69.00;99674.91;3177843;27;20573;-71
2023/06/29 03:34:06;;;;;;;7.13;2.00;;;;;;;17.48;68.94;99674.66;3178405;27;20050;-71
2023/06/29 03:35:37;;;;;;;2.67;2.05;;;;;;;17.50;68.85;99674.53;3178369;27;20051;-73
2023/06/29 03:37:10;;;;;;;2.47;1.67;;;;;;;17.51;68.39;99678.84;3174052;27;20046;-73
2023/06/29 03:38:42;;;;;;;4.35;1.88;;;;;;;17.52;68.35;99681.34;3178143;27;20564;-72
2023/06/29 03:40:13;;;;;;;4.78;1.45;;;;;;;17.53;68.17;99679.56;3172562;27;20043;-72
2023/06/29 03:41:45;;;;;;;3.72;1.83;;;;;;;17.54;67.87;99683.03;3178332;27;20057;-72
2023/06/29 03:43:18;;;;;;;4.93;2.05;;;;;;;17.52;67.44;99680.53;3178567;27;20051;-72
2023/06/29 03:44:51;;;;;;;4.55;1.70;;;;;;;17.54;67.21;99685.66;3178291;27;20099;-72
2023/06/29 03:46:24;;;;;;;5.38;2.03;;;;;;;17.57;67.15;99677.53;3177699;27;20099;-74
2023/06/29 03:47:56;;;;;;;;;;;;;;;17.44;67.45;99683.72;3166858;27;20052;-74
2023/06/29 03:49:27;;;;;;;3.20;2.03;;;;;;;17.51;67.22;99684.97;3178337;27;19923;-75
2023/06/29 03:50:59;;;;;;;3.45;1.73;;;;;;;17.59;66.81;99671.19;3166015;27;20647;-73
2023/06/29 03:52:31;;;;;;;3.33;1.60;;;;;;;17.61;66.45;99685.09;3177011;27;20099;-73
2023/06/29 03:54:03;;;;;;;2.97;1.67;;;;;;;17.59;66.28;99684.34;3178231;27;20058;-73
2023/06/29 03:55:35;;;;;;;3.67;1.70;;;;;;;17.67;66.14;99696.94;3178121;27;20051;-74
2023/06/29 03:57:07;;;;;;;2.22;1.75;;;;;;;17.54;65.94;99656.69;3178100;27;20062;-73
2023/06/29 03:58:40;;;;;;;3.80;1.73;;;;;;;17.74;65.68;99687.59;3177177;28;20061;-73
2023/06/29 04:00:11;;;;;;;;;;;;;;;17.61;66.07;99697.41;3177895;28;20779;-74
2023/06/29 04:01:43;;;;;;;3.63;1.48;;;;;;;17.65;66.08;99691.78;3171847;28;20037;-74
2023/06/29 04:03:15;;;;;;;2.53;1.77;;;;;;;17.71;65.71;99696.59;3172136;28;20047;-72
2023/06/29 04:04:47;;;;;;;4.22;1.83;;;;;;;17.74;65.64;99695.50;3175429;28;20129;-72
2023/06/29 04:06:18;;;;;;;5.32;1.70;;;;;;;17.78;65.54;99702.28;3175931;28;20051;-71
2023/06/29 04:07:51;;;;;;;6.03;1.60;;;;;;;17.78;65.19;99697.00;3169371;28;20047;-73
2023/06/29 04:09:22;;;;;;;2.67;1.70;;;;;;;17.79;65.08;99700.47;3177801;28;20051;-74
2023/06/29 04:10:54;;;;;;;5.40;1.90;;;;;;;17.80;64.88;99695.06;3172802;28;20308;-71
2023/06/29 04:12:25;;;;;;;2.85;1.60;;;;;;;17.83;64.78;99699.28;3171604;28;20047;-71
2023/06/29 04:13:58;;;;;;;3.85;1.75;;;;;;;17.84;64.36;99708.88;3177208;28;20057;-73
2023/06/29 04:15:30;;;;;;;3.50;2.03;;;;;;;17.83;64.46;99710.63;3177342;28;20115;-73
2023/06/29 04:17:02;;;;;;;6.63;1.80;;;;;;;17.87;64.33;99706.00;3173519;28;20051;-70
2023/06/29 04:18:35;;;;;;;4.68;1.75;;;;;;;17.88;64.11;99708.50;3176759;28;20055;-77
2023/06/29 04:20:08;;;;;;;6.47;1.95;;;;;;;17.90;64.13;99703.97;3177302;28;20055;-73
2023/06/29 04:21:40;;;;;;;3.50;1.97;;;;;;;17.93;63.98;99713.44;3172194;28;20184;-73
2023/06/29 04:23:14;;;;;;;4.97;3.00;;;;;;;18.00;64.02;99709.34;3169935;28;20055;-71
2023/06/29 04:24:45;;;;;;;5.38;2.85;;;;;;;18.00;63.85;99700.63;3177638;28;20100;-72
2023/06/29 04:26:17;;;;;;;5.78;2.25;;;;;;;18.11;63.51;99711.16;3177823;28;20046;-78
2023/06/29 04:27:49;;;;;;;2.80;1.60;;;;;;;18.15;63.34;99700.25;3177385;28;20051;-74
2023/06/29 04:29:34;;;;;;;10.27;5.38;;;;;;;18.23;63.38;99704.09;3176332;28;20327;-69
2023/06/29 04:31:06;;;;;;;15.35;9.05;;;;;;;18.24;63.30;99708.41;3177230;27;20066;-73
2023/06/29 04:32:38;;;;;;;3.75;2.38;;;;;;;18.27;62.98;99711.63;3177385;28;20055;-72
2023/06/29 04:34:09;;;;;;;5.82;2.00;;;;;;;18.29;62.36;99711.53;3177232;28;20108;-75
2023/06/29 04:35:41;;;;;;;8.55;3.17;;;;;;;18.30;62.66;99714.00;3177031;28;20804;-71
2023/06/29 04:37:12;;;;;;;4.47;1.77;;;;;;;18.33;62.56;99716.41;3176481;28;20058;-73
2023/06/29 04:38:44;;;;;;;4.47;2.05;;;;;;;18.35;62.38;99711.88;3177459;28;20058;-78
2023/06/29 04:40:16;;;;;;;4.15;1.73;;;;;;;18.36;62.32;99717.97;3174514;28;20635;-76
2023/06/29 04:41:48;;;;;;;6.00;2.20;;;;;;;18.40;62.45;99725.53;3177338;28;20051;-76
2023/06/29 04:43:21;;;;;;;3.13;2.03;;;;;;;18.42;62.39;99730.66;3177172;28;20062;-73
2023/06/29 04:44:55;;;;;;;4.25;2.28;;;;;;;18.41;62.55;99721.09;3177186;28;20575;-73
2023/06/29 04:46:29;;;;;;;53.10;27.73;;;;;;;18.31;62.36;99715.72;3177191;28;20078;-73
2023/06/29 04:47:59;;;;;;;;;;;;;;;18.26;62.64;99727.56;3168708;28;20836;-73
2023/06/29 04:49:36;;;;;;;4.05;2.60;;;;;;;18.32;62.61;99727.94;3176762;28;19930;-74
2023/06/29 04:51:07;;;;;;;3.33;2.03;;;;;;;18.36;62.44;99728.53;3157878;28;20047;-74
2023/06/29 04:52:40;;;;;;;4.32;2.13;;;;;;;18.39;62.54;99721.19;3164456;28;20130;-72
2023/06/29 04:54:11;;;;;;;4.07;2.05;;;;;;;18.42;62.49;99733.31;3163009;28;20066;-74
2023/06/29 04:55:44;;;;;;;22.75;14.30;;;;;;;18.47;62.39;99725.03;3163997;28;20140;-68
2023/06/29 04:57:16;;;;;;;8.20;5.43;;;;;;;18.49;62.48;99731.03;3128347;28;1240273;-70
2023/06/29 04:58:48;;;;;;;8.05;2.58;;;;;;;18.47;62.25;99730.31;3175613;28;20413;-71
2023/06/29 05:00:22;;;;;;;4.18;2.22;;;;;;;18.52;62.20;99736.06;3176261;28;20053;-70
2023/06/29 05:01:54;;;;;;;7.65;2.40;;;;;;;18.50;62.17;99735.34;3161359;28;20289;-69
2023/06/29 05:03:27;;;;;;;5.47;2.33;;;;;;;18.50;62.13;99741.47;3174410;28;20052;-71
2023/06/29 05:04:59;;;;;;;4.30;2.08;;;;;;;18.48;61.96;99742.53;3168022;28;20051;-70
2023/06/29 05:06:31;;;;;;;3.80;1.98;;;;;;;18.45;62.10;99740.13;3173135;28;20070;-68
2023/06/29 05:08:02;;;;;;;3.63;2.13;;;;;;;18.41;61.97;99740.38;3168901;28;20043;-70
2023/06/29 05:09:36;;;;;;;4.53;2.00;;;;;;;18.39;62.03;99744.94;3177153;28;20051;-69
2023/06/29 05:11:19;;;;;;;4.55;2.30;;;;;;;18.42;62.08;99738.56;3174969;28;20096;-72
2023/06/29 05:12:52;;;;;;;3.13;2.00;;;;;;;18.42;62.09;99746.50;3169088;28;20499;-73
2023/06/29 05:14:36;;;;;;;7.18;2.22;;;;;;;18.41;62.15;99745.66;3177387;28;20047;-71
2023/06/29 05:16:14;;;;;;;3.88;2.22;;;;;;;18.44;62.05;99755.13;3177490;28;20079;-73
2023/06/29 05:17:49;;;;;;;6.57;2.13;;;;;;;18.47;62.11;99752.25;3171349;28;20187;-68
2023/06/29 05:19:26;;;;;;;3.30;2.15;;;;;;;18.49;62.29;99752.97;3172176;28;20047;-73
2023/06/29 05:21:03;;;;;;;4.15;2.20;;;;;;;18.50;61.98;99746.72;3169403;28;20429;-72
2023/06/29 05:22:44;;;;;;;3.70;1.98;;;;;;;18.54;62.12;99750.78;3169665;28;20062;-72
2023/06/29 05:24:29;;;;;;;4.82;2.03;;;;;;;18.56;61.83;99758.59;3177428;28;20485;-70
2023/06/29 05:26:08;;;;;;;4.85;1.75;;;;;;;18.54;61.86;99760.50;3177205;28;20051;-72
2023/06/29 05:27:43;;;;;;;3.58;1.88;;;;;;;18.53;61.78;99754.41;3177323;28;20134;-71
2023/06/29 05:29:17;;;;;;;3.03;2.05;;;;;;;18.53;61.54;99761.47;3178080;28;20055;-69
2023/06/29 05:30:56;;;;;;;2.95;2.10;;;;;;;18.54;61.50;99761.34;3177541;28;20047;-70
2023/06/29 05:32:42;;;;;;;11.35;2.30;;;;;;;18.58;61.60;99765.44;3175744;28;20054;-71
2023/06/29 05:34:15;;;;;;;3.88;2.05;;;;;;;18.61;61.81;99759.91;3172175;28;20589;-67
2023/06/29 05:36:11;;;;;;;4.13;2.28;;;;;;;18.63;61.36;99767.69;3176991;28;20061;-68
2023/06/29 05:37:47;;;;;;;3.92;2.30;;;;;;;18.68;61.50;99762.06;3156011;28;20059;-67
2023/06/29 05:39:34;;;;;;;5.43;2.30;;;;;;;18.64;61.32;99746.47;3166938;28;20047;-69
2023/06/29 05:41:09;;;;;;;3.60;2.22;;;;;;;18.73;61.33;99763.41;3170199;28;20043;-69
2023/06/29 05:42:47;;;;;;;7.13;2.97;;;;;;;18.80;60.74;99759.31;3178081;27;20138;-70
2023/06/29 05:44:19;;;;;;;6.35;2.15;;;;;;;18.81;60.80;99765.41;3176749;27;20143;-70
2023/06/29 05:45:51;;;;;;;5.97;2.50;;;;;;;18.86;60.58;99772.00;3178410;27;20489;-69
2023/06/29 05:47:23;;;;;;;3.00;2.17;;;;;;;18.91;60.46;99762.91;3177590;27;20053;-69
2023/06/29 05:48:57;;;;;;;2.85;2.13;;;;;;;18.96;60.24;99758.06;3179375;27;20116;-72
2023/06/29 05:50:28;;;;;;;6.68;1.92;;;;;;;19.02;60.29;99761.06;3175289;27;20043;-71
2023/06/29 05:52:00;;;;;;;5.63;2.33;;;;;;;19.08;59.79;99772.94;3174815;27;20066;-71
2023/06/29 05:53:32;;;;;;;4.88;2.30;;;;;;;19.15;59.86;99757.44;3179140;27;20054;-72
2023/06/29 05:55:05;;;;;;;2.75;2.00;;;;;;;19.22;59.36;99759.44;3167973;27;20079;-70
2023/06/29 05:56:37;;;;;;;4.10;2.22;;;;;;;19.27;59.43;99759.91;3175190;27;20062;-71
2023/06/29 05:58:09;;;;;;;4.82;2.00;;;;;;;19.31;58.80;99753.41;3179284;27;20253;-68
2023/06/29 05:59:41;;;;;;;3.25;2.20;;;;;;;19.35;58.70;99756.63;3174775;27;20081;-68
2023/06/29 06:01:14;;;;;;;4.43;2.20;;;;;;;19.26;58.92;99729.19;3173257;27;20231;-69
2023/06/29 06:02:46;;;;;;;4.18;2.13;;;;;;;19.47;58.45;99745.06;3179295;27;20104;-71
2023/06/29 06:04:19;;;;;;;5.90;2.80;;;;;;;19.50;58.11;99747.44;3168344;27;20122;-71
2023/06/29 06:05:50;;;;;;;;;;;;;;;19.38;58.16;99747.63;3171576;27;20490;-72
2023/06/29 06:07:29;;;;;;;2.35;2.03;;;;;;;19.45;57.84;99749.63;3172387;27;19923;-71
2023/06/29 06:09:01;;;;;;;3.35;2.30;;;;;;;19.53;58.00;99752.47;3179197;27;20447;-68
2023/06/29 06:10:33;;;;;;;4.10;2.25;;;;;;;19.59;57.74;99737.09;3171659;27;20067;-72
2023/06/29 06:12:06;;;;;;;5.35;2.08;;;;;;;19.61;57.38;99743.06;3177838;27;20047;-68
2023/06/29 06:13:38;;;;;;;2.60;2.10;;;;;;;19.61;57.01;99745.69;3179450;27;20162;-67
2023/06/29 06:15:13;;;;;;;2.60;2.08;;;;;;;19.66;57.20;99743.53;3178960;27;20137;-67
2023/06/29 06:16:46;;;;;;;3.30;2.05;;;;;;;19.69;57.16;99749.41;3177379;27;20051;-67
2023/06/29 06:18:18;;;;;;;6.03;2.28;;;;;;;19.72;57.18;99749.16;3175984;27;20059;-67
2023/06/29 06:19:51;;;;;;;2.85;2.00;;;;;;;19.77;56.58;99748.78;3179036;27;20059;-67
2023/06/29 06:21:23;;;;;;;3.97;2.17;;;;;;;19.80;56.63;99750.31;3176506;27;20553;-69
2023/06/29 06:22:55;;;;;;;2.70;2.00;;;;;;;19.81;56.97;99738.78;3173154;27;20058;-69
2023/06/29 06:24:28;;;;;;;6.03;1.95;;;;;;;19.87;56.59;99732.97;3178608;27;20123;-67
2023/06/29 06:26:00;;;;;;;2.53;1.80;;;;;;;19.95;56.79;99733.16;3179127;27;20481;-68
2023/06/29 06:27:33;;;;;;;4.80;1.77;;;;;;;19.99;56.31;99730.13;3179155;27;20154;-67
2023/06/29 06:29:05;;;;;;;6.18;3.38;;;;;;;20.07;56.30;99728.63;3178127;27;20057;-67
2023/06/29 06:30:37;;;;;;;6.38;2.08;;;;;;;20.13;56.20;99728.94;3179093;27;20507;-66
2023/06/29 06:32:09;;;;;;;2.88;2.17;;;;;;;20.22;56.37;99722.84;3178944;27;20447;-68
2023/06/29 06:33:41;;;;;;;4.75;2.47;;;;;;;20.31;55.70;99725.66;3179164;27;20051;-68
2023/06/29 06:35:15;;;;;;;3.83;2.60;;;;;;;20.37;55.87;99723.31;3168316;27;20134;-70
2023/06/29 06:36:48;;;;;;;3.80;2.17;;;;;;;20.43;55.17;99729.88;3173943;27;20631;-70
2023/06/29 06:38:20;;;;;;;5.22;2.33;;;;;;;20.44;55.09;99726.28;3178121;27;20078;-68
2023/06/29 06:39:52;;;;;;;2.95;2.03;;;;;;;20.46;54.53;99725.16;3168504;27;20047;-74
2023/06/29 06:41:24;;;;;;;2.80;1.80;;;;;;;20.46;54.53;99721.69;3178833;27;20116;-68
2023/06/29 06:42:56;;;;;;;4.70;2.40;;;;;;;20.51;54.40;99718.66;3165261;27;20313;-68
2023/06/29 06:44:29;;;;;;;3.53;1.90;;;;;;;20.57;54.50;99712.84;3166702;27;20094;-69
2023/06/29 06:45:59;;;;;;;3.65;2.35;;;;;;;20.66;54.49;99719.97;3179349;27;20155;-72
2023/06/29 06:47:32;;;;;;;9.73;2.67;;;;;;;20.64;54.61;99706.03;3170045;27;20539;-69
2023/06/29 06:49:04;;;;;;;2.75;2.05;;;;;;;20.77;54.38;99713.72;3173539;27;20735;-68
2023/06/29 06:50:37;;;;;;;5.05;2.20;;;;;;;20.86;54.40;99715.56;3174680;27;20816;-69
2023/06/29 06:52:09;;;;;;;;;;;;;;;20.80;54.45;99709.00;3167560;27;20553;-68
2023/06/29 06:53:41;;;;;;;3.25;2.10;;;;;;;20.88;54.45;99709.16;3174758;27;20319;-70
2023/06/29 06:55:13;;;;;;;4.22;2.40;;;;;;;21.04;54.02;99710.41;3168848;28;20120;-69
2023/06/29 06:56:45;;;;;;;2.85;2.22;;;;;;;21.12;53.54;99719.34;3164448;28;20502;-72
2023/06/29 06:58:17;;;;;;;5.90;2.10;;;;;;;21.15;52.71;99718.22;3178819;27;20490;-71
2023/06/29 06:59:48;;;;;;;3.15;1.85;;;;;;;21.18;52.75;99720.59;3172538;27;20051;-72
2023/06/29 07:01:22;;;;;;;7.43;2.03;;;;;;;21.25;52.63;99715.56;3166065;28;20080;-70
2023/06/29 07:02:54;;;;;;;3.45;2.08;;;;;;;21.25;52.07;99720.88;3176348;27;20388;-70
2023/06/29 07:04:26;;;;;;;2.42;1.90;;;;;;;21.27;51.92;99724.22;3173288;27;20067;-70
2023/06/29 07:05:59;;;;;;;5.32;1.90;;;;;;;21.34;51.95;99725.31;3174652;27;20050;-70
2023/06/29 07:07:31;;;;;;;;;;;;;;;21.27;51.97;99718.94;3174690;27;20046;-69
2023/06/29 07:09:04;;;;;;;2.97;2.08;;;;;;;21.39;51.71;99709.06;3171501;27;20460;-71
2023/06/29 07:10:36;;;;;;;3.30;2.30;;;;;;;21.47;51.41;99717.09;3178587;27;20602;-69
2023/06/29 07:12:10;;;;;;;5.95;2.13;;;;;;;21.55;51.53;99717.25;3178126;27;20050;-74
2023/06/29 07:13:41;;;;;;;;;;;;;;;21.51;51.27;99723.81;3178629;27;20055;-71
2023/06/29 07:15:13;;;;;;;3.17;1.80;;;;;;;21.59;51.19;99718.63;3178139;27;19949;-70
2023/06/29 07:16:45;;;;;;;3.88;2.05;;;;;;;21.70;50.63;99725.59;3176384;27;20062;-69
2023/06/29 07:18:17;;;;;;;2.67;2.03;;;;;;;21.76;50.21;99730.31;3170534;27;20061;-72
2023/06/29 07:19:49;;;;;;;3.72;2.00;;;;;;;21.78;49.98;99718.59;3178093;27;20153;-70